Time;durP1;ratioP1;P1;durP2;ratioP2;P2;SDS_P1;SDS_P2;PMS_P1;PMS_P2;Temp;Humidity;BMP_temperature;BMP_pressure;BME280_temperature;BME280_humidity;BME280_pressure;Samples;Min_cycle;Max_cycle;Signal;HPM_P1;HPM_P2
2020/12/21 00:01:17;;;;;;;4.47;4.07;;;10.20;99.90;;;;;;5072866;28;20415;-62
2020/12/21 00:03:43;;;;;;;4.60;4.20;;;10.20;99.90;;;;;;5073301;28;20455;-62
2020/12/21 00:06:13;;;;;;;6.20;5.60;;;10.30;99.90;;;;;;5073521;28;20408;-62
2020/12/21 00:08:39;;;;;;;3.83;3.53;;;10.10;99.90;;;;;;5073261;28;20456;-61
2020/12/21 00:11:04;;;;;;;4.07;3.70;;;10.10;99.90;;;;;;5072964;28;20407;-60
2020/12/21 00:13:30;;;;;;;5.50;3.93;;;10.20;99.90;;;;;;5073253;28;20677;-61
2020/12/21 00:15:56;;;;;;;4.27;3.93;;;10.10;99.90;;;;;;5073426;28;20171;-61
2020/12/21 00:18:22;;;;;;;3.77;3.47;;;10.10;99.90;;;;;;5072906;28;20192;-60
2020/12/21 00:20:48;;;;;;;3.63;3.33;;;10.10;99.90;;;;;;5073314;28;20402;-62
2020/12/21 00:23:14;;;;;;;3.60;3.30;;;10.10;99.90;;;;;;5072833;28;20408;-62
2020/12/21 00:25:39;;;;;;;3.70;3.30;;;10.10;99.90;;;;;;5072504;28;20182;-61
2020/12/21 00:28:05;;;;;;;3.60;3.30;;;10.20;99.90;;;;;;5072681;28;20467;-61
2020/12/21 00:30:31;;;;;;;3.70;3.40;;;10.10;99.90;;;;;;5072527;28;20197;-61
2020/12/21 00:32:56;;;;;;;3.97;3.67;;;10.20;99.90;;;;;;5072659;28;20778;-60
2020/12/21 00:35:22;;;;;;;3.93;3.43;;;10.10;99.90;;;;;;5073240;28;20199;-61
2020/12/21 00:37:48;;;;;;;2.90;2.60;;;10.20;99.90;;;;;;5074216;28;20196;-62
2020/12/21 00:40:13;;;;;;;3.30;3.00;;;10.30;99.90;;;;;;5075486;28;20172;-60
2020/12/21 00:42:39;;;;;;;2.80;2.60;;;10.30;99.90;;;;;;5077345;28;20565;-61
2020/12/21 00:45:05;;;;;;;4.57;3.10;;;10.30;99.90;;;;;;5076853;28;20174;-61
2020/12/21 00:47:33;;;;;;;3.47;3.17;;;10.30;99.90;;;;;;5082423;28;20737;-61
2020/12/21 00:49:59;;;;;;;2.73;2.53;;;10.30;99.90;;;;;;5093891;28;20179;-61
2020/12/21 00:52:25;;;;;;;3.00;2.60;;;10.20;99.90;;;;;;5096784;28;20409;-61
2020/12/21 00:54:50;;;;;;;5.37;2.97;;;10.20;99.90;;;;;;5096578;28;20175;-61
2020/12/21 00:57:16;;;;;;;3.23;2.90;;;10.10;99.90;;;;;;5096358;28;20194;-61
2020/12/21 00:59:41;;;;;;;4.00;2.80;;;10.10;99.90;;;;;;5096642;28;20167;-61
2020/12/21 01:02:07;;;;;;;2.67;2.47;;;10.00;99.90;;;;;;5096196;28;20590;-61
2020/12/21 01:04:33;;;;;;;2.90;2.70;;;10.00;99.90;;;;;;5096517;28;20183;-61
2020/12/21 01:06:58;;;;;;;2.97;2.73;;;10.00;99.90;;;;;;5096217;28;20173;-61
2020/12/21 01:09:24;;;;;;;2.77;2.57;;;10.10;99.90;;;;;;5092690;28;20257;-59
2020/12/21 01:11:52;;;;;;;3.20;2.40;;;10.00;99.90;;;;;;5075841;28;20633;-60
2020/12/21 01:14:18;;;;;;;3.20;2.90;;;10.10;99.90;;;;;;5076104;28;20168;-60
2020/12/21 01:16:43;;;;;;;3.70;3.37;;;10.10;99.90;;;;;;5076695;28;20569;-62
2020/12/21 01:19:09;;;;;;;3.53;3.23;;;10.20;99.90;;;;;;5076051;28;20637;-61
2020/12/21 01:21:35;;;;;;;4.43;2.90;;;10.30;99.90;;;;;;5076246;28;20199;-62
2020/12/21 01:24:00;;;;;;;2.60;2.40;;;10.30;99.90;;;;;;5075989;28;20626;-62
2020/12/21 01:26:27;;;;;;;3.13;2.83;;;10.10;99.90;;;;;;5075821;28;20548;-61
2020/12/21 01:28:53;;;;;;;3.17;2.90;;;10.00;99.90;;;;;;5076005;28;20231;-62
2020/12/21 01:31:19;;;;;;;2.27;2.07;;;9.80;99.90;;;;;;5075512;28;20747;-61
2020/12/21 01:33:49;;;;;;;2.67;2.47;;;9.80;99.90;;;;;;5075169;28;20177;-61
2020/12/21 01:36:20;;;;;;;3.10;2.80;;;9.80;99.90;;;;;;5075651;28;20410;-61
2020/12/21 01:38:45;;;;;;;3.90;2.60;;;9.80;99.90;;;;;;5075854;28;20462;-61
2020/12/21 01:41:11;;;;;;;3.43;3.13;;;9.70;99.90;;;;;;5075485;28;20448;-62
2020/12/21 01:43:37;;;;;;;3.30;2.87;;;9.60;99.90;;;;;;5075947;28;20184;-62
2020/12/21 01:46:13;;;;;;;3.70;3.40;;;9.60;99.90;;;;;;5075646;28;20181;-62
2020/12/21 01:48:41;;;;;;;3.00;2.50;;;9.60;99.90;;;;;;5074914;28;20714;-61
2020/12/21 01:51:08;;;;;;;3.00;2.80;;;9.60;99.90;;;;;;5095794;28;20479;-62
2020/12/21 01:53:37;;;;;;;2.87;2.67;;;9.40;99.90;;;;;;5095953;28;20438;-62
2020/12/21 01:56:04;;;;;;;2.80;2.60;;;9.40;99.90;;;;;;5095264;28;20767;-60
2020/12/21 01:58:30;;;;;;;2.90;2.60;;;9.40;99.90;;;;;;5094961;28;20502;-62
2020/12/21 02:01:02;;;;;;;3.30;3.00;;;9.30;99.90;;;;;;5095301;28;20497;-62
2020/12/21 02:03:28;;;;;;;2.70;2.50;;;9.20;99.90;;;;;;5095816;28;20489;-62
2020/12/21 02:05:54;;;;;;;3.40;3.10;;;9.20;99.90;;;;;;5094115;28;20938;-62
2020/12/21 02:08:19;;;;;;;3.67;3.03;;;9.20;99.90;;;;;;5094861;28;20456;-62
2020/12/21 02:10:45;;;;;;;2.50;2.30;;;9.10;99.90;;;;;;5079613;28;20819;-62
2020/12/21 02:13:11;;;;;;;3.37;2.93;;;9.10;99.90;;;;;;5075117;28;20169;-65
2020/12/21 02:15:36;;;;;;;4.20;3.00;;;9.00;99.90;;;;;;5075108;28;20202;-62
2020/12/21 02:18:02;;;;;;;3.40;3.10;;;8.90;99.90;;;;;;5075078;28;20277;-62
2020/12/21 02:20:30;;;;;;;5.80;3.70;;;8.80;99.90;;;;;;5075211;28;20691;-61
2020/12/21 02:22:56;;;;;;;3.73;3.30;;;8.70;99.90;;;;;;5075337;28;20554;-62
2020/12/21 02:25:21;;;;;;;3.43;3.13;;;8.70;99.90;;;;;;5074230;28;20408;-62
2020/12/21 02:27:47;;;;;;;3.60;3.30;;;8.60;99.90;;;;;;5075578;28;20229;-61
2020/12/21 02:30:12;;;;;;;3.50;2.57;;;8.70;99.90;;;;;;5075424;28;20171;-62
2020/12/21 02:32:38;;;;;;;2.80;2.60;;;8.60;99.90;;;;;;5075713;28;20170;-62
2020/12/21 02:35:06;;;;;;;4.23;3.27;;;8.50;99.90;;;;;;5075934;28;20172;-62
2020/12/21 02:37:32;;;;;;;3.70;3.40;;;8.40;99.90;;;;;;5074674;28;20203;-61
2020/12/21 02:39:58;;;;;;;3.23;2.80;;;8.30;99.90;;;;;;5073712;28;20506;-62
2020/12/21 02:42:23;;;;;;;4.67;3.10;;;8.20;99.90;;;;;;5074181;28;20401;-62
2020/12/21 02:44:49;;;;;;;3.40;3.10;;;8.10;99.90;;;;;;5074189;28;20174;-62
2020/12/21 02:47:14;;;;;;;3.37;3.07;;;8.10;99.90;;;;;;5074315;28;20205;-62
2020/12/21 02:49:40;;;;;;;3.80;3.50;;;8.10;99.90;;;;;;5074610;28;20193;-60
2020/12/21 02:52:05;;;;;;;4.00;3.60;;;8.00;99.90;;;;;;5074218;28;20245;-61
2020/12/21 02:54:31;;;;;;;4.17;3.87;;;8.00;99.90;;;;;;5074095;28;20333;-62
2020/12/21 02:56:57;;;;;;;5.67;3.70;;;8.00;99.90;;;;;;5073787;28;20174;-60
2020/12/21 02:59:22;;;;;;;3.50;3.13;;;8.00;99.90;;;;;;5073682;28;20177;-61
2020/12/21 03:01:48;;;;;;;4.10;3.70;;;8.00;99.90;;;;;;5073097;28;20170;-61
2020/12/21 03:04:14;;;;;;;4.60;3.47;;;8.00;99.90;;;;;;5074149;28;20166;-60
2020/12/21 03:06:39;;;;;;;4.07;3.73;;;8.00;99.90;;;;;;5074183;28;20177;-62
2020/12/21 03:09:05;;;;;;;3.20;2.90;;;8.00;99.90;;;;;;5073920;28;20597;-61
2020/12/21 03:11:31;;;;;;;3.57;3.27;;;8.10;99.90;;;;;;5073669;28;20207;-62
2020/12/21 03:13:57;;;;;;;4.00;3.60;;;8.10;99.90;;;;;;5073764;28;20223;-62
2020/12/21 03:16:23;;;;;;;3.63;3.30;;;8.20;99.90;;;;;;5074446;28;20225;-62
2020/12/21 03:18:49;;;;;;;4.33;3.93;;;8.20;99.90;;;;;;5073727;28;20932;-62
2020/12/21 03:21:16;;;;;;;3.70;3.40;;;8.30;99.90;;;;;;5073867;28;20413;-62
2020/12/21 03:23:41;;;;;;;4.07;3.20;;;8.20;99.90;;;;;;5073901;28;20462;-60
2020/12/21 03:26:07;;;;;;;4.13;3.83;;;8.10;99.90;;;;;;5073207;28;20808;-60
2020/12/21 03:28:33;;;;;;;3.30;3.00;;;8.10;99.90;;;;;;5073955;28;20247;-60
2020/12/21 03:30:58;;;;;;;3.43;3.23;;;8.10;99.90;;;;;;5074083;28;20170;-61
2020/12/21 03:33:24;;;;;;;3.13;2.83;;;8.00;99.90;;;;;;5074314;28;20249;-62
2020/12/21 03:35:49;;;;;;;4.10;3.70;;;7.90;99.90;;;;;;5073651;28;20257;-61
2020/12/21 03:38:15;;;;;;;4.20;3.80;;;8.00;99.90;;;;;;5073334;28;20332;-62
2020/12/21 03:40:41;;;;;;;3.80;3.50;;;8.00;99.90;;;;;;5073463;28;20184;-60
2020/12/21 03:43:06;;;;;;;5.10;3.80;;;7.90;99.90;;;;;;5092787;28;20185;-60
2020/12/21 03:45:32;;;;;;;4.20;3.83;;;7.90;99.90;;;;;;5097057;28;20177;-60
2020/12/21 03:47:58;;;;;;;4.87;4.47;;;7.90;99.90;;;;;;5093957;28;20577;-60
2020/12/21 03:50:24;;;;;;;4.13;3.83;;;7.90;99.90;;;;;;5094249;28;20166;-59
2020/12/21 03:52:50;;;;;;;4.73;3.93;;;7.90;99.90;;;;;;5093583;28;20770;-59
2020/12/21 03:55:15;;;;;;;5.07;4.20;;;7.80;99.90;;;;;;5093872;28;20165;-59
2020/12/21 03:57:41;;;;;;;4.60;4.20;;;7.60;99.90;;;;;;5093523;28;20196;-60
2020/12/21 04:00:07;;;;;;;5.43;4.77;;;7.50;99.90;;;;;;5093684;28;20571;-59
2020/12/21 04:02:34;;;;;;;4.60;4.13;;;7.50;99.90;;;;;;5093751;28;20633;-60
2020/12/21 04:05:03;;;;;;;5.40;4.80;;;7.50;99.90;;;;;;5093753;28;20411;-62
2020/12/21 04:07:28;;;;;;;5.70;5.10;;;7.50;99.90;;;;;;5093282;28;20985;-60
2020/12/21 04:09:54;;;;;;;5.97;5.47;;;7.40;99.90;;;;;;5085999;28;20416;-60
2020/12/21 04:12:20;;;;;;;6.03;5.23;;;7.40;99.90;;;;;;5073725;28;20233;-62
2020/12/21 04:14:45;;;;;;;6.13;5.53;;;7.30;99.90;;;;;;5077215;28;20162;-61
2020/12/21 04:17:11;;;;;;;6.10;5.60;;;7.20;99.90;;;;;;5077439;28;20173;-62
2020/12/21 04:19:36;;;;;;;7.23;6.53;;;7.20;99.90;;;;;;5077365;28;20186;-60
2020/12/21 04:22:02;;;;;;;6.83;5.97;;;7.10;99.90;;;;;;5077740;28;20629;-61
2020/12/21 04:24:28;;;;;;;6.87;6.27;;;7.10;99.90;;;;;;5077171;28;20192;-62
2020/12/21 04:26:53;;;;;;;5.93;5.43;;;7.10;99.90;;;;;;5077265;28;20162;-61
2020/12/21 04:29:19;;;;;;;5.30;4.80;;;7.20;99.90;;;;;;5076964;28;20198;-61
2020/12/21 04:31:44;;;;;;;5.63;5.10;;;7.30;99.90;;;;;;5077148;28;20165;-62
2020/12/21 04:34:10;;;;;;;6.93;5.43;;;7.30;99.90;;;;;;5076846;28;20174;-62
2020/12/21 04:36:35;;;;;;;6.10;5.37;;;7.40;99.90;;;;;;5076780;28;20241;-62
2020/12/21 04:39:01;;;;;;;6.23;5.63;;;7.50;99.90;;;;;;5076232;28;20800;-61
2020/12/21 04:41:27;;;;;;;6.93;5.60;;;7.40;99.90;;;;;;5075923;28;20174;-61
2020/12/21 04:43:55;;;;;;;4.77;4.37;;;7.30;99.90;;;;;;5076013;28;20511;-61
2020/12/21 04:46:21;;;;;;;6.80;6.10;;;7.40;99.90;;;;;;5076621;28;20182;-62
2020/12/21 04:48:48;;;;;;;5.87;5.27;;;7.40;99.90;;;;;;5076560;28;20478;-61
2020/12/21 04:51:16;;;;;;;7.07;6.40;;;7.30;99.90;;;;;;5076569;28;20436;-61
2020/12/21 04:53:43;;;;;;;5.53;5.03;;;7.20;99.90;;;;;;5076642;28;20415;-61
2020/12/21 04:56:08;;;;;;;5.23;4.37;;;7.30;99.90;;;;;;5074934;28;20411;-62
2020/12/21 04:58:34;;;;;;;6.37;5.10;;;7.40;99.90;;;;;;5076314;28;20818;-62
2020/12/21 05:01:00;;;;;;;5.40;4.90;;;7.40;99.90;;;;;;5076561;28;20516;-62
2020/12/21 05:03:25;;;;;;;4.80;4.30;;;7.40;99.90;;;;;;5076521;28;20619;-60
2020/12/21 05:05:51;;;;;;;5.53;5.10;;;7.40;99.90;;;;;;5076275;28;20273;-60
2020/12/21 05:08:19;;;;;;;9.30;5.90;;;7.50;99.90;;;;;;5076376;28;20197;-61
2020/12/21 05:10:58;;;;;;;4.73;4.33;;;7.50;99.90;;;;;;5076044;28;20625;-62
2020/12/21 05:13:25;;;;;;;6.50;5.07;;;7.50;99.90;;;;;;5075664;28;20978;-62
2020/12/21 05:15:52;;;;;;;7.03;4.60;;;7.60;99.90;;;;;;5076075;28;20445;-61
2020/12/21 05:18:23;;;;;;;4.50;4.10;;;7.70;99.90;;;;;;5076061;28;20441;-61
2020/12/21 05:20:58;;;;;;;5.33;4.80;;;7.70;99.90;;;;;;5076238;28;20437;-62
2020/12/21 05:23:24;;;;;;;6.70;5.27;;;7.70;99.90;;;;;;5075759;28;20756;-62
2020/12/21 05:26:05;;;;;;;5.00;4.50;;;7.70;99.90;;;;;;5075591;28;20768;-60
2020/12/21 05:28:32;;;;;;;5.17;4.67;;;7.80;99.90;;;;;;5075897;28;20452;-61
2020/12/21 05:31:03;;;;;;;3.83;3.53;;;7.80;99.90;;;;;;5076047;28;20396;-60
2020/12/21 05:33:29;;;;;;;5.23;4.73;;;7.80;99.90;;;;;;5076126;28;20386;-61
2020/12/21 05:35:56;;;;;;;4.50;3.90;;;7.70;99.90;;;;;;5075852;28;20402;-60
2020/12/21 05:38:23;;;;;;;4.17;3.87;;;7.80;99.90;;;;;;5075592;28;20966;-61
2020/12/21 05:40:49;;;;;;;5.03;4.60;;;7.80;99.90;;;;;;5075385;28;20412;-61
2020/12/21 05:43:29;;;;;;;5.30;3.57;;;7.80;99.90;;;;;;5077426;28;20413;-60
2020/12/21 05:46:09;;;;;;;5.20;4.33;;;8.00;99.90;;;;;;5114759;28;20777;-61
2020/12/21 05:48:40;;;;;;;5.23;4.60;;;8.10;99.90;;;;;;5116186;28;20477;-59
2020/12/21 05:51:07;;;;;;;6.10;3.80;;;8.10;99.90;;;;;;5116137;28;20904;-62
2020/12/21 05:53:37;;;;;;;5.70;4.60;;;8.10;99.90;;;;;;5116000;27;20406;-61
2020/12/21 05:56:03;;;;;;;5.17;4.53;;;8.10;99.90;;;;;;5107951;28;20420;-61
2020/12/21 05:58:33;;;;;;;5.40;4.90;;;8.10;99.90;;;;;;5075285;28;20435;-61
2020/12/21 06:01:07;;;;;;;8.33;5.17;;;8.10;99.90;;;;;;5075999;28;20405;-62
2020/12/21 06:03:49;;;;;;;6.87;6.17;;;8.20;99.90;;;;;;5075488;28;20416;-61
2020/12/21 06:06:19;;;;;;;6.83;6.23;;;8.30;99.90;;;;;;5075433;28;20415;-59
2020/12/21 06:08:47;;;;;;;7.63;6.80;;;8.30;99.90;;;;;;5075125;28;20785;-61
2020/12/21 06:11:14;;;;;;;8.37;7.30;;;8.20;99.90;;;;;;5073528;28;20451;-61
2020/12/21 06:13:44;;;;;;;8.37;7.57;;;8.20;99.90;;;;;;5075116;28;20405;-62
2020/12/21 06:16:11;;;;;;;9.07;7.80;;;8.20;99.90;;;;;;5074974;28;20481;-61
2020/12/21 06:18:37;;;;;;;7.47;6.43;;;8.30;99.90;;;;;;5074943;28;20443;-62
2020/12/21 06:21:02;;;;;;;7.37;6.67;;;8.30;99.90;;;;;;5075334;28;20395;-62
2020/12/21 06:23:39;;;;;;;7.50;6.90;;;8.30;99.90;;;;;;5074837;28;20199;-62
2020/12/21 06:26:12;;;;;;;7.40;6.70;;;8.20;99.90;;;;;;5074386;28;20216;-61
2020/12/21 06:28:39;;;;;;;7.17;6.50;;;8.20;99.90;;;;;;5074561;28;20535;-62
2020/12/21 06:31:18;;;;;;;7.13;6.53;;;8.10;99.90;;;;;;5074719;28;20748;-61
2020/12/21 06:33:48;;;;;;;8.43;7.63;;;8.00;99.90;;;;;;5082269;28;20455;-60
2020/12/21 06:36:14;;;;;;;8.33;7.20;;;7.90;99.90;;;;;;5093889;28;20396;-62
2020/12/21 06:38:48;;;;;;;7.17;6.47;;;7.90;99.90;;;;;;5094796;28;20436;-62
2020/12/21 06:41:24;;;;;;;7.60;6.70;;;7.90;99.90;;;;;;5094450;28;20388;-63
2020/12/21 06:43:54;;;;;;;9.50;8.50;;;7.80;99.90;;;;;;5093247;28;20403;-60
2020/12/21 06:46:21;;;;;;;6.90;6.20;;;7.70;99.90;;;;;;5094361;28;20908;-62
2020/12/21 06:49:05;;;;;;;9.00;7.87;;;7.70;99.90;;;;;;5094330;28;20454;-61
2020/12/21 06:51:31;;;;;;;10.77;8.07;;;7.70;99.90;;;;;;5094815;28;20426;-62
2020/12/21 06:53:58;;;;;;;8.97;7.30;;;7.70;99.90;;;;;;5094498;28;20903;-61
2020/12/21 06:56:26;;;;;;;7.97;7.17;;;7.70;99.90;;;;;;5087280;28;20211;-61
2020/12/21 06:58:56;;;;;;;7.80;7.07;;;7.90;99.90;;;;;;5074145;28;20432;-61
2020/12/21 07:01:23;;;;;;;7.20;6.50;;;7.90;99.90;;;;;;5072421;28;20412;-63
2020/12/21 07:03:49;;;;;;;8.13;7.07;;;8.00;99.90;;;;;;5072862;28;20749;-61
2020/12/21 07:06:15;;;;;;;8.63;7.83;;;8.10;99.90;;;;;;5073823;28;20408;-61
2020/12/21 07:08:41;;;;;;;7.43;6.77;;;8.10;99.90;;;;;;5073569;28;20199;-62
2020/12/21 07:11:12;;;;;;;7.90;7.23;;;8.10;99.90;;;;;;5073798;28;20405;-62
2020/12/21 07:13:38;;;;;;;8.23;7.53;;;8.00;99.90;;;;;;5073377;28;20882;-61
2020/12/21 07:16:06;;;;;;;6.53;6.03;;;8.00;99.90;;;;;;5073493;28;20479;-62
2020/12/21 07:18:31;;;;;;;11.83;9.63;;;7.90;99.90;;;;;;5073547;28;20202;-62
2020/12/21 07:20:57;;;;;;;10.93;8.83;;;7.80;99.90;;;;;;5073655;28;20736;-62
2020/12/21 07:23:23;;;;;;;8.07;7.37;;;7.70;99.90;;;;;;5073506;28;20174;-61
2020/12/21 07:25:52;;;;;;;11.63;7.37;;;7.50;99.90;;;;;;5073254;28;20170;-60
2020/12/21 07:28:22;;;;;;;9.03;6.77;;;7.50;99.90;;;;;;5073283;28;20861;-61
2020/12/21 07:30:48;;;;;;;8.10;7.10;;;7.60;99.90;;;;;;5073825;28;20399;-62
2020/12/21 07:33:13;;;;;;;9.03;8.13;;;7.70;99.90;;;;;;5073569;28;20405;-61
2020/12/21 07:35:39;;;;;;;9.27;8.37;;;7.80;99.90;;;;;;5073540;28;20162;-62
2020/12/21 07:38:12;;;;;;;7.90;7.10;;;8.00;99.90;;;;;;5073383;28;20183;-62
2020/12/21 07:40:44;;;;;;;7.67;6.93;;;8.20;99.90;;;;;;5073917;28;20177;-62
2020/12/21 07:43:17;;;;;;;7.70;7.03;;;8.30;99.90;;;;;;5094311;28;20502;-61
2020/12/21 07:45:44;;;;;;;12.53;8.43;;;8.30;99.90;;;;;;5092743;28;20391;-62
2020/12/21 07:48:10;;;;;;;11.23;9.30;;;8.20;99.90;;;;;;5093118;28;20447;-62
2020/12/21 07:50:36;;;;;;;12.70;10.63;;;8.30;99.90;;;;;;5092186;28;20485;-59
2020/12/21 07:53:03;;;;;;;10.73;9.63;;;8.30;99.90;;;;;;5093447;28;20996;-60
2020/12/21 07:55:28;;;;;;;9.60;8.18;;;8.40;99.90;;;;;;5093696;28;20397;-58
2020/12/21 07:57:54;;;;;;;9.87;8.23;;;8.50;99.90;;;;;;5076885;28;20607;-58
2020/12/21 08:00:20;;;;;;;9.80;8.53;;;8.50;99.90;;;;;;5076421;28;20269;-59
2020/12/21 08:02:51;;;;;;;10.40;8.00;;;8.50;99.90;;;;;;5076047;28;20200;-59
2020/12/21 08:05:20;;;;;;;9.40;8.40;;;8.50;99.90;;;;;;5074743;28;20151;-60
2020/12/21 08:07:46;;;;;;;10.47;9.47;;;8.50;99.90;;;;;;5073135;28;20478;-62
2020/12/21 08:10:17;;;;;;;9.20;8.33;;;8.50;99.90;;;;;;5073694;28;20405;-61
2020/12/21 08:12:43;;;;;;;8.60;6.80;;;8.60;99.90;;;;;;5072517;28;20164;-62
2020/12/21 08:15:09;;;;;;;11.17;9.30;;;8.60;99.90;;;;;;5072348;28;20540;-62
2020/12/21 08:17:34;;;;;;;8.77;7.97;;;8.60;99.90;;;;;;5072855;28;20278;-61
2020/12/21 08:20:05;;;;;;;8.90;8.10;;;8.60;99.90;;;;;;5072944;28;20436;-61
2020/12/21 08:22:31;;;;;;;8.50;7.73;;;8.60;99.90;;;;;;5073149;28;20548;-61
2020/12/21 08:25:11;;;;;;;8.93;7.97;;;8.70;99.90;;;;;;5072749;28;20420;-61
2020/12/21 08:27:38;;;;;;;11.50;9.00;;;8.70;99.90;;;;;;5072558;28;20458;-60
2020/12/21 08:30:16;;;;;;;9.93;8.73;;;8.60;99.90;;;;;;5073416;28;20447;-60
2020/12/21 08:32:42;;;;;;;9.73;8.73;;;8.80;99.90;;;;;;5073388;28;20411;-61
2020/12/21 08:35:08;;;;;;;8.23;7.43;;;8.80;99.90;;;;;;5073906;28;20399;-61
2020/12/21 08:37:34;;;;;;;9.53;8.43;;;8.90;99.90;;;;;;5072953;28;20302;-61
2020/12/21 08:40:16;;;;;;;13.03;7.73;;;9.00;99.90;;;;;;5072539;28;20448;-60
2020/12/21 08:42:45;;;;;;;9.33;7.73;;;9.00;99.90;;;;;;5072366;28;20410;-61
2020/12/21 08:45:20;;;;;;;8.27;6.97;;;9.00;99.90;;;;;;5072078;28;20468;-62
2020/12/21 08:47:46;;;;;;;7.77;6.97;;;8.90;99.90;;;;;;5072658;28;20442;-61
2020/12/21 08:50:12;;;;;;;8.70;7.77;;;8.90;99.90;;;;;;5073343;28;20772;-62
2020/12/21 08:52:37;;;;;;;8.87;7.20;;;9.00;99.90;;;;;;5073281;28;20402;-61
2020/12/21 08:55:05;;;;;;;10.03;7.83;;;9.10;99.90;;;;;;5073083;28;20636;-61
2020/12/21 08:57:31;;;;;;;7.70;6.90;;;9.20;99.90;;;;;;5072269;28;20182;-61
2020/12/21 08:59:56;;;;;;;8.10;7.40;;;9.30;99.90;;;;;;5075689;28;20921;-61
2020/12/21 09:02:22;;;;;;;10.33;7.37;;;9.40;99.90;;;;;;5076599;28;20210;-62
2020/12/21 09:04:47;;;;;;;8.17;7.13;;;9.40;99.90;;;;;;5075737;28;20505;-64
2020/12/21 09:07:13;;;;;;;8.00;7.30;;;9.60;99.90;;;;;;5075991;28;20264;-61
2020/12/21 09:09:38;;;;;;;7.87;7.07;;;9.60;99.90;;;;;;5076233;28;20184;-60
2020/12/21 09:12:04;;;;;;;8.50;7.70;;;9.70;99.90;;;;;;5076136;28;20165;-62
2020/12/21 09:14:30;;;;;;;9.10;8.00;;;9.70;99.90;;;;;;5075648;28;20171;-61
2020/12/21 09:16:55;;;;;;;7.33;6.73;;;9.70;99.90;;;;;;5075495;28;20177;-62
2020/12/21 09:19:21;;;;;;;11.80;8.50;;;9.70;99.90;;;;;;5075522;28;20249;-62
2020/12/21 09:21:46;;;;;;;8.23;7.43;;;9.70;99.90;;;;;;5075750;28;20182;-62
2020/12/21 09:24:12;;;;;;;8.80;7.80;;;9.80;99.90;;;;;;5075754;28;20170;-63
2020/12/21 09:26:38;;;;;;;8.07;7.27;;;9.90;99.90;;;;;;5084014;28;20648;-61
2020/12/21 09:29:04;;;;;;;7.20;6.47;;;9.90;99.90;;;;;;5095878;28;20679;-62
2020/12/21 09:31:30;;;;;;;9.67;7.70;;;9.90;99.90;;;;;;5095971;28;20398;-61
2020/12/21 09:33:55;;;;;;;11.10;7.80;;;9.90;99.90;;;;;;5095732;28;20748;-61
2020/12/21 09:36:21;;;;;;;8.60;7.87;;;9.90;99.90;;;;;;5095962;28;20174;-62
2020/12/21 09:38:50;;;;;;;8.67;7.87;;;10.10;99.90;;;;;;5098242;28;20193;-62
2020/12/21 09:41:19;;;;;;;8.77;7.83;;;10.20;99.90;;;;;;5076835;28;20439;-61
2020/12/21 09:43:46;;;;;;;10.53;7.83;;;10.20;99.90;;;;;;5074777;28;20416;-63
2020/12/21 09:46:24;;;;;;;8.90;7.60;;;10.30;99.90;;;;;;5074983;28;20396;-62
2020/12/21 09:48:53;;;;;;;10.30;8.33;;;10.30;99.90;;;;;;5075421;28;20508;-62
2020/12/21 09:51:22;;;;;;;9.10;6.93;;;10.30;99.90;;;;;;5073919;28;20965;-62
2020/12/21 09:53:48;;;;;;;7.30;6.60;;;10.30;99.90;;;;;;5075218;28;20405;-62
2020/12/21 09:56:15;;;;;;;7.47;6.80;;;10.40;99.90;;;;;;5075412;28;20414;-62
2020/12/21 09:58:45;;;;;;;6.47;5.87;;;10.50;99.90;;;;;;5074134;28;20205;-62
2020/12/21 10:01:11;;;;;;;6.63;5.50;;;10.40;99.90;;;;;;5075466;28;20407;-62
2020/12/21 10:03:38;;;;;;;6.87;6.17;;;10.10;99.90;;;;;;5075124;28;20464;-62
2020/12/21 10:06:04;;;;;;;6.57;5.93;;;10.20;99.90;;;;;;5075261;28;20731;-62
2020/12/21 10:08:29;;;;;;;5.53;4.93;;;10.30;99.90;;;;;;5074904;28;20456;-62
2020/12/21 10:10:55;;;;;;;6.83;6.10;;;10.50;99.90;;;;;;5074913;28;20580;-62
2020/12/21 10:13:21;;;;;;;6.63;5.80;;;10.60;99.90;;;;;;5074580;28;20553;-60
2020/12/21 10:15:47;;;;;;;5.97;5.40;;;10.70;99.90;;;;;;5074752;28;20169;-61
2020/12/21 10:18:12;;;;;;;5.67;5.10;;;10.80;99.90;;;;;;5074713;28;20599;-61
2020/12/21 10:20:38;;;;;;;5.73;5.23;;;10.80;99.90;;;;;;5075103;28;20419;-61
2020/12/21 10:23:03;;;;;;;6.37;5.23;;;10.70;99.90;;;;;;5074884;28;20178;-61
2020/12/21 10:25:29;;;;;;;6.20;4.53;;;10.60;99.90;;;;;;5074940;28;20174;-61
2020/12/21 10:27:54;;;;;;;3.83;3.30;;;10.70;99.90;;;;;;5074317;28;20664;-62
2020/12/21 10:30:20;;;;;;;4.87;4.07;;;10.60;99.90;;;;;;5074780;28;20215;-62
2020/12/21 10:32:46;;;;;;;4.53;3.03;;;10.50;99.90;;;;;;5074666;28;20180;-60
2020/12/21 10:35:11;;;;;;;3.50;3.20;;;10.70;99.90;;;;;;5074434;28;20182;-61
2020/12/21 10:37:37;;;;;;;5.20;3.10;;;10.70;99.90;;;;;;5074828;28;20205;-61
2020/12/21 10:40:04;;;;;;;3.20;2.67;;;11.00;99.90;;;;;;5074501;28;20169;-61
2020/12/21 10:42:30;;;;;;;4.10;3.10;;;11.10;99.90;;;;;;5074246;28;20753;-61
2020/12/21 10:44:55;;;;;;;4.80;3.00;;;11.20;99.90;;;;;;5074041;28;20433;-61
2020/12/21 10:47:21;;;;;;;4.40;3.20;;;11.00;99.90;;;;;;5074382;28;20259;-60
2020/12/21 10:49:47;;;;;;;6.13;2.50;;;10.90;99.90;;;;;;5077327;28;20181;-59
2020/12/21 10:52:13;;;;;;;4.97;2.40;;;10.60;99.90;;;;;;5082775;28;20412;-59
2020/12/21 10:54:38;;;;;;;4.43;3.27;;;10.70;99.90;;;;;;5082069;28;20176;-58
2020/12/21 10:57:06;;;;;;;4.33;2.80;;;10.80;99.90;;;;;;5081467;28;20684;-61
2020/12/21 10:59:32;;;;;;;4.53;3.63;;;11.00;99.90;;;;;;5080314;28;20197;-58
2020/12/21 11:01:58;;;;;;;6.30;3.37;;;10.80;99.90;;;;;;5080466;28;20400;-59
2020/12/21 11:04:23;;;;;;;6.40;2.97;;;10.80;99.90;;;;;;5080796;28;20438;-60
2020/12/21 11:06:49;;;;;;;4.70;3.47;;;10.90;99.90;;;;;;5079556;28;20179;-59
2020/12/21 11:09:15;;;;;;;5.40;3.80;;;11.00;99.90;;;;;;5079534;28;20205;-61
2020/12/21 11:11:40;;;;;;;5.20;3.17;;;10.80;99.90;;;;;;5078784;28;20215;-60
2020/12/21 11:14:08;;;;;;;4.50;4.10;;;10.60;99.90;;;;;;5078490;28;20810;-60
2020/12/21 11:16:33;;;;;;;4.93;3.17;;;10.70;99.90;;;;;;5080286;28;20173;-61
2020/12/21 11:18:59;;;;;;;5.33;3.83;;;10.50;99.90;;;;;;5078880;28;20462;-59
2020/12/21 11:21:25;;;;;;;4.07;3.60;;;10.40;99.90;;;;;;5079232;28;20439;-59
2020/12/21 11:23:50;;;;;;;5.70;3.40;;;10.50;99.90;;;;;;5078410;28;20174;-59
2020/12/21 11:26:18;;;;;;;6.50;3.90;;;10.60;99.90;;;;;;5078545;28;20180;-59
2020/12/21 11:28:44;;;;;;;7.23;3.03;;;10.90;99.90;;;;;;5078204;28;20247;-60
2020/12/21 11:31:13;;;;;;;4.17;3.50;;;11.10;99.90;;;;;;5099456;28;20416;-59
2020/12/21 11:33:39;;;;;;;5.40;3.03;;;11.20;99.90;;;;;;5098818;28;20170;-59
2020/12/21 11:36:04;;;;;;;4.50;3.37;;;11.30;99.90;;;;;;5099579;28;20403;-59
2020/12/21 11:38:30;;;;;;;7.17;3.17;;;11.30;99.90;;;;;;5100823;28;20195;-58
2020/12/21 11:40:56;;;;;;;4.73;3.00;;;11.40;99.90;;;;;;5100451;28;20168;-59
2020/12/21 11:43:21;;;;;;;5.17;3.73;;;11.20;99.90;;;;;;5100496;28;20191;-61
2020/12/21 11:45:48;;;;;;;4.67;3.43;;;10.80;99.90;;;;;;5099588;28;20177;-59
2020/12/21 11:48:13;;;;;;;5.20;3.70;;;10.90;99.90;;;;;;5100235;28;20195;-60
2020/12/21 11:50:39;;;;;;;4.53;3.73;;;11.10;99.90;;;;;;5101522;28;20502;-59
2020/12/21 11:53:04;;;;;;;4.80;3.57;;;11.20;99.90;;;;;;5100775;28;20229;-60
2020/12/21 11:55:30;;;;;;;5.07;3.30;;;11.10;99.90;;;;;;5101173;28;20572;-60
2020/12/21 11:57:56;;;;;;;4.20;3.80;;;10.90;99.90;;;;;;5100398;28;20197;-59
2020/12/21 12:00:21;;;;;;;4.07;3.40;;;11.00;99.90;;;;;;5078682;28;20574;-59
2020/12/21 12:02:47;;;;;;;4.87;3.30;;;10.90;99.90;;;;;;5077489;28;20177;-59
2020/12/21 12:05:13;;;;;;;3.47;3.17;;;10.70;99.90;;;;;;5078144;28;20280;-58
2020/12/21 12:07:40;;;;;;;4.10;3.60;;;10.80;99.90;;;;;;5078156;28;20237;-60
2020/12/21 12:10:06;;;;;;;4.30;3.60;;;11.10;99.90;;;;;;5080237;28;20396;-60
2020/12/21 12:12:32;;;;;;;4.90;3.40;;;11.30;99.90;;;;;;5080256;28;20409;-60
2020/12/21 12:14:58;;;;;;;4.80;3.80;;;11.40;99.90;;;;;;5081058;28;20477;-59
2020/12/21 12:17:24;;;;;;;4.27;3.40;;;11.10;99.90;;;;;;5081111;28;20541;-60
2020/12/21 12:19:50;;;;;;;4.17;3.17;;;11.00;99.90;;;;;;5088849;28;20209;-59
2020/12/21 12:22:16;;;;;;;4.00;3.57;;;10.80;99.90;;;;;;5078854;28;20626;-59
2020/12/21 12:24:42;;;;;;;6.03;3.43;;;10.70;99.90;;;;;;5079144;28;20484;-60
2020/12/21 12:27:07;;;;;;;5.07;3.60;;;10.70;99.90;;;;;;5078831;28;20428;-59
2020/12/21 12:29:33;;;;;;;3.70;3.30;;;10.80;99.90;;;;;;5078564;28;20233;-57
2020/12/21 12:31:59;;;;;;;4.23;3.70;;;10.80;99.90;;;;;;5080008;28;20166;-60
2020/12/21 12:34:24;;;;;;;4.30;3.90;;;10.80;99.90;;;;;;5083163;28;20215;-58
2020/12/21 12:36:50;;;;;;;5.13;3.67;;;10.60;99.90;;;;;;5084328;28;20162;-58
2020/12/21 12:39:16;;;;;;;3.77;2.93;;;10.60;99.90;;;;;;5084735;28;20193;-60
2020/12/21 12:41:42;;;;;;;4.30;2.97;;;10.70;99.90;;;;;;5083414;28;20198;-60
2020/12/21 12:44:08;;;;;;;4.57;3.47;;;10.70;99.90;;;;;;5082974;28;20163;-60
2020/12/21 12:46:34;;;;;;;3.87;3.50;;;10.80;99.90;;;;;;5083354;28;20436;-60
2020/12/21 12:49:04;;;;;;;4.13;3.73;;;11.10;99.90;;;;;;5084951;28;20886;-59
2020/12/21 12:51:29;;;;;;;6.93;3.37;;;11.40;99.90;;;;;;5084715;28;20404;-60